Time;durP1;ratioP1;P1;durP2;ratioP2;P2;SDS_P1;SDS_P2;PMS_P1;PMS_P2;Temp;Humidity;BMP_temperature;BMP_pressure;BME280_temperature;BME280_humidity;BME280_pressure;Samples;Min_cycle;Max_cycle;Signal;HPM_P1;HPM_P2
2023/07/27 00:00:24;;;;;;;5.40;4.20;;;;;;;13.00;100.00;100239.78;4978855;28;20208;-66
2023/07/27 00:02:50;;;;;;;5.40;4.00;;;;;;;13.04;100.00;100242.44;4980988;28;20736;-66
2023/07/27 00:05:17;;;;;;;6.43;4.20;;;;;;;13.09;100.00;100239.78;4979535;28;20276;-66
2023/07/27 00:07:43;;;;;;;4.63;3.70;;;;;;;13.11;100.00;100240.66;4979388;28;20604;-66
2023/07/27 00:10:10;;;;;;;6.53;4.20;;;;;;;13.17;100.00;100244.22;4980772;28;20213;-66
2023/07/27 00:12:37;;;;;;;7.13;3.90;;;;;;;13.22;100.00;100240.72;4980788;28;20746;-66
2023/07/27 00:15:03;;;;;;;6.60;4.40;;;;;;;13.19;100.00;100230.94;4976970;28;20197;-64
2023/07/27 00:17:30;;;;;;;5.53;4.10;;;;;;;13.14;100.00;100222.94;4978842;28;20232;-66
2023/07/27 00:19:57;;;;;;;7.37;4.10;;;;;;;13.19;100.00;100225.63;4979608;28;20609;-65
2023/07/27 00:22:23;;;;;;;5.33;3.83;;;;;;;13.20;100.00;100223.84;4979770;28;20954;-65
2023/07/27 00:24:50;;;;;;;4.97;3.57;;;;;;;13.26;100.00;100221.22;4980843;28;20229;-66
2023/07/27 00:27:16;;;;;;;5.20;3.70;;;;;;;13.16;100.00;100226.47;4984805;28;20242;-67
2023/07/27 00:29:43;;;;;;;4.97;3.57;;;;;;;13.14;100.00;100220.28;4987541;28;20694;-66
2023/07/27 00:32:09;;;;;;;4.47;3.67;;;;;;;13.21;100.00;100221.22;4988148;28;20199;-66
2023/07/27 00:34:36;;;;;;;5.03;3.80;;;;;;;13.21;100.00;100214.97;4987761;28;20195;-66
2023/07/27 00:37:02;;;;;;;9.73;3.80;;;;;;;13.16;100.00;100214.94;4987901;28;20223;-67
2023/07/27 00:39:28;;;;;;;4.60;3.70;;;;;;;13.16;100.00;100214.94;4986247;28;20299;-66
2023/07/27 00:41:55;;;;;;;9.00;3.70;;;;;;;13.18;100.00;100213.22;4988047;28;20596;-66
2023/07/27 00:44:21;;;;;;;5.80;3.80;;;;;;;13.19;100.00;100217.63;4987310;28;20316;-66
2023/07/27 00:46:48;;;;;;;9.77;3.93;;;;;;;13.23;100.00;100213.25;4988032;28;20228;-66
2023/07/27 00:49:14;;;;;;;7.13;3.60;;;;;;;13.20;100.00;100210.56;4987026;28;20214;-67
2023/07/27 00:51:42;;;;;;;5.50;3.57;;;;;;;13.17;100.00;100207.00;4986160;28;20271;-68
2023/07/27 00:54:10;;;;;;;6.67;3.80;;;;;;;13.23;100.00;100203.50;4982339;28;20197;-67
2023/07/27 00:56:38;;;;;;;5.13;3.97;;;;;;;13.28;100.00;100198.16;4982656;28;20722;-67
2023/07/27 00:59:06;;;;;;;8.17;3.70;;;;;;;13.30;100.00;100191.06;4981393;28;20208;-65
2023/07/27 01:01:33;;;;;;;7.10;3.57;;;;;;;13.28;100.00;100192.84;4982601;28;20338;-68
2023/07/27 01:03:59;;;;;;;5.73;3.77;;;;;;;13.23;100.00;100190.19;4981027;28;20368;-67
2023/07/27 01:06:27;;;;;;;5.60;3.93;;;;;;;13.16;100.00;100186.59;4983036;28;20251;-65
2023/07/27 01:08:54;;;;;;;5.07;3.70;;;;;;;13.17;100.00;100187.50;4982388;28;20371;-67
2023/07/27 01:11:42;;;;;;;7.20;4.03;;;;;;;13.14;100.00;100183.03;4982844;28;20209;-66
2023/07/27 01:14:23;;;;;;;5.03;4.10;;;;;;;13.07;100.00;100178.63;4983561;28;20495;-67
2023/07/27 01:17:00;;;;;;;6.97;4.13;;;;;;;13.08;100.00;100168.88;4982312;28;20306;-66
2023/07/27 01:19:55;;;;;;;5.53;3.70;;;;;;;13.15;100.00;100173.28;4989603;28;20212;-66
2023/07/27 01:22:43;;;;;;;4.83;3.70;;;;;;;13.17;100.00;100163.56;4988124;28;20201;-66
2023/07/27 01:25:37;;;;;;;5.20;3.40;;;;;;;13.25;100.00;100166.25;4982186;28;20243;-68
2023/07/27 01:28:21;;;;;;;9.97;3.83;;;;;;;13.24;100.00;100159.16;4988525;28;20223;-66
2023/07/27 01:30:57;;;;;;;7.03;3.80;;;;;;;13.24;100.00;100159.16;4986585;28;20207;-67
2023/07/27 01:33:46;;;;;;;5.73;3.50;;;;;;;13.12;100.00;100144.06;4991636;28;20204;-67
2023/07/27 01:36:21;;;;;;;4.80;3.87;;;;;;;13.08;100.00;100134.31;4989628;28;20207;-66
2023/07/27 01:38:49;;;;;;;5.73;3.87;;;;;;;13.15;100.00;100142.28;4987514;28;20206;-66
2023/07/27 01:41:17;;;;;;;6.03;4.07;;;;;;;13.18;100.00;100136.09;4985941;28;20731;-68
2023/07/27 01:43:44;;;;;;;4.47;3.63;;;;;;;13.13;100.00;100125.44;4992071;28;20204;-66
2023/07/27 01:46:12;;;;;;;6.97;4.10;;;;;;;13.15;100.00;100134.28;4990168;28;20197;-67
2023/07/27 01:48:40;;;;;;;5.33;3.37;;;;;;;13.06;100.00;100122.78;4984286;28;20291;-68
2023/07/27 01:51:09;;;;;;;5.53;3.67;;;;;;;13.13;100.00;100117.47;4990194;28;20204;-66
2023/07/27 01:53:36;;;;;;;4.60;3.23;;;;;;;13.17;100.00;100121.91;4991048;28;20240;-67
2023/07/27 01:56:05;;;;;;;7.57;3.80;;;;;;;13.26;100.00;100125.47;4988801;28;20290;-65
2023/07/27 01:58:34;;;;;;;7.23;3.60;;;;;;;13.30;100.00;100119.25;4981530;28;20270;-67
2023/07/27 02:01:01;;;;;;;4.67;3.63;;;;;;;13.24;100.00;100109.53;4984457;28;20291;-66
2023/07/27 02:03:29;;;;;;;5.27;3.60;;;;;;;13.27;100.00;100117.50;4981040;28;20201;-66
2023/07/27 02:05:57;;;;;;;4.53;3.60;;;;;;;13.19;100.00;100113.94;4980429;28;20595;-66
2023/07/27 02:08:23;;;;;;;4.53;3.50;;;;;;;13.14;100.00;100111.25;4980428;28;20291;-67
2023/07/27 02:11:19;;;;;;;6.43;3.37;;;;;;;13.14;100.00;100105.94;4980840;28;20231;-66
2023/07/27 02:13:54;;;;;;;7.23;3.77;;;;;;;13.22;100.00;100099.78;4978545;28;20208;-67
2023/07/27 02:16:34;;;;;;;5.50;4.17;;;;;;;13.31;100.00;100105.06;4980951;28;20246;-67
2023/07/27 02:19:03;;;;;;;5.27;3.77;;;;;;;13.32;100.00;100102.41;4982726;28;20298;-67
2023/07/27 02:21:31;;;;;;;6.80;3.63;;;;;;;13.30;100.00;100097.97;4981535;28;20218;-67
2023/07/27 02:23:58;;;;;;;5.83;4.10;;;;;;;13.31;100.00;100097.09;4980870;28;20209;-65
2023/07/27 02:26:25;;;;;;;5.87;4.00;;;;;;;13.34;100.00;100091.75;4980885;28;20322;-67
2023/07/27 02:28:51;;;;;;;5.27;3.60;;;;;;;13.35;100.00;100097.06;4981506;28;20660;-67
2023/07/27 02:31:18;;;;;;;7.33;4.13;;;;;;;13.38;100.00;100093.53;4981777;28;20588;-65
2023/07/27 02:33:44;;;;;;;5.13;3.60;;;;;;;13.32;100.00;100097.09;4980317;28;20421;-66
2023/07/27 02:36:11;;;;;;;6.17;3.50;;;;;;;13.23;100.00;100096.22;4979304;28;20201;-68
2023/07/27 02:38:37;;;;;;;6.80;4.20;;;;;;;13.18;100.00;100096.22;4981573;28;20669;-66
2023/07/27 02:41:03;;;;;;;6.37;3.90;;;;;;;13.15;100.00;100089.09;4978908;28;20204;-67
2023/07/27 02:43:30;;;;;;;6.00;3.80;;;;;;;13.23;100.00;100096.22;4977959;28;20246;-66
2023/07/27 02:46:00;;;;;;;6.20;3.83;;;;;;;13.20;100.00;100088.22;4981782;28;20304;-66
2023/07/27 02:48:27;;;;;;;6.67;4.20;;;;;;;13.19;100.00;100082.03;4981284;28;20205;-65
2023/07/27 02:50:53;;;;;;;6.27;3.80;;;;;;;13.17;100.00;100082.03;4980219;28;20687;-68
2023/07/27 02:53:20;;;;;;;4.50;3.90;;;;;;;13.16;100.00;100085.53;4980696;28;20681;-67
2023/07/27 02:56:00;;;;;;;6.90;4.00;;;;;;;13.28;100.00;100087.34;4981880;28;20226;-66
2023/07/27 02:58:27;;;;;;;5.90;4.27;;;;;;;13.33;100.00;100085.56;5003845;23;20231;-66
2023/07/27 03:00:54;;;;;;;6.87;3.83;;;;;;;13.33;100.00;100085.56;4979308;28;20778;-67
2023/07/27 03:03:21;;;;;;;6.00;4.33;;;;;;;13.40;100.00;100079.31;4979656;28;20564;-67
2023/07/27 03:05:48;;;;;;;5.90;4.07;;;;;;;13.46;100.00;100081.06;4980072;28;20363;-65
2023/07/27 03:08:14;;;;;;;7.73;4.13;;;;;;;13.52;100.00;100080.16;4995246;28;20232;-66
2023/07/27 03:10:41;;;;;;;7.00;4.10;;;;;;;13.51;100.00;100078.41;4999343;28;20220;-66
2023/07/27 03:13:07;;;;;;;5.47;4.17;;;;;;;13.57;100.00;100079.25;4998084;28;20286;-66
2023/07/27 03:15:38;;;;;;;4.90;4.17;;;;;;;13.56;100.00;100074.81;4999474;28;20655;-67
2023/07/27 03:18:05;;;;;;;5.80;4.60;;;;;;;13.59;100.00;100079.25;4999114;28;20796;-66
2023/07/27 03:20:38;;;;;;;6.23;4.70;;;;;;;13.58;100.00;100073.03;4998139;28;20223;-66
2023/07/27 03:23:04;;;;;;;6.03;3.90;;;;;;;13.56;100.00;100071.28;4999366;28;20203;-65
2023/07/27 03:25:33;;;;;;;8.07;4.87;;;;;;;13.57;100.00;100065.94;4998712;28;20212;-65
2023/07/27 03:28:02;;;;;;;10.00;4.70;;;;;;;13.62;100.00;100064.19;5000438;28;20227;-67
2023/07/27 03:30:28;;;;;;;6.70;4.63;;;;;;;13.66;100.00;100068.59;5005349;28;20590;-67
2023/07/27 03:32:54;;;;;;;7.97;4.67;;;;;;;13.70;100.00;100066.81;5009957;28;20204;-65
2023/07/27 03:35:21;;;;;;;5.57;4.33;;;;;;;13.71;100.00;100065.91;5006818;28;20204;-67
2023/07/27 03:37:49;;;;;;;5.80;4.37;;;;;;;13.77;100.00;100060.56;5004096;28;20252;-66
2023/07/27 03:40:15;;;;;;;6.43;4.57;;;;;;;13.73;100.00;100053.47;5002354;28;20204;-66
2023/07/27 03:42:42;;;;;;;6.60;4.67;;;;;;;13.71;100.00;100063.25;5006695;28;20668;-66
2023/07/27 03:45:09;;;;;;;7.60;4.67;;;;;;;13.73;100.00;100056.16;5004136;28;20860;-67
2023/07/27 03:47:35;;;;;;;7.73;4.50;;;;;;;13.70;100.00;100050.84;5001462;28;20602;-67
2023/07/27 03:50:02;;;;;;;7.50;4.63;;;;;;;13.70;100.00;100053.50;5000298;28;20287;-67
2023/07/27 03:52:28;;;;;;;7.40;5.00;;;;;;;13.71;100.00;100053.50;4999908;28;20436;-67
2023/07/27 03:54:54;;;;;;;5.53;4.53;;;;;;;13.76;100.00;100045.47;5009081;28;20210;-66
2023/07/27 03:57:21;;;;;;;6.17;4.93;;;;;;;13.74;100.00;100036.63;5005188;28;20232;-65
2023/07/27 03:59:47;;;;;;;7.80;5.60;;;;;;;13.77;100.00;100042.81;5000038;28;20435;-66
2023/07/27 04:02:13;;;;;;;5.73;4.83;;;;;;;13.79;100.00;100049.00;4998501;28;20226;-65
2023/07/27 04:04:40;;;;;;;6.80;4.97;;;;;;;13.76;100.00;100048.16;4998271;28;20216;-65
2023/07/27 04:07:06;;;;;;;7.53;5.07;;;;;;;13.75;100.00;100059.69;5001045;28;20232;-67
2023/07/27 04:09:34;;;;;;;8.83;5.20;;;;;;;13.72;100.00;100057.03;4998527;28;20295;-65
2023/07/27 04:12:01;;;;;;;7.53;5.03;;;;;;;13.72;100.00;100055.25;4997945;28;20389;-67
2023/07/27 04:14:27;;;;;;;6.57;5.40;;;;;;;13.70;100.00;100035.75;4998191;28;20204;-66
2023/07/27 04:16:53;;;;;;;5.70;5.03;;;;;;;13.69;100.00;100036.66;4998921;28;20231;-66
2023/07/27 04:19:20;;;;;;;5.77;4.57;;;;;;;13.74;100.00;100036.63;4998420;28;20205;-65
2023/07/27 04:21:46;;;;;;;8.97;5.07;;;;;;;13.85;100.00;100042.75;5000081;28;20207;-66
2023/07/27 04:24:12;;;;;;;7.00;4.90;;;;;;;13.89;100.00;100040.97;4999177;28;20208;-66
2023/07/27 04:26:39;;;;;;;8.00;4.53;;;;;;;13.90;100.00;100032.09;4999528;28;20212;-66
2023/07/27 04:29:05;;;;;;;8.53;4.23;;;;;;;13.89;100.00;100033.88;4998318;28;20200;-66
2023/07/27 04:31:32;;;;;;;5.43;4.17;;;;;;;13.89;100.00;100033.88;4996804;28;21385;-66
2023/07/27 04:33:58;;;;;;;7.43;4.33;;;;;;;13.93;100.00;100032.06;4998636;28;20785;-65
2023/07/27 04:36:24;;;;;;;7.30;4.57;;;;;;;13.89;100.00;100033.88;4998945;28;20200;-65
2023/07/27 04:38:51;;;;;;;6.87;4.27;;;;;;;13.85;100.00;100029.44;4999954;28;20200;-65
2023/07/27 04:41:17;;;;;;;6.87;4.23;;;;;;;13.89;100.00;100032.97;5001220;28;20204;-67
2023/07/27 04:43:43;;;;;;;7.00;4.80;;;;;;;13.94;100.00;100021.41;5006571;28;20197;-66
2023/07/27 04:46:10;;;;;;;6.97;4.20;;;;;;;13.97;100.00;100021.38;5002153;28;20227;-66
2023/07/27 04:48:36;;;;;;;6.93;4.80;;;;;;;14.07;100.00;100030.22;5005892;28;20319;-67
2023/07/27 04:51:03;;;;;;;8.97;5.57;;;;;;;14.13;100.00;100018.63;5004815;28;20200;-68
2023/07/27 04:53:29;;;;;;;9.80;4.70;;;;;;;14.16;100.00;100019.50;5006220;28;20207;-68
2023/07/27 04:55:58;;;;;;;11.13;5.13;;;;;;;14.23;100.00;100025.66;5005450;28;20286;-68
2023/07/27 04:58:24;;;;;;;9.00;4.97;;;;;;;14.18;100.00;100025.69;5006866;28;20310;-68
2023/07/27 05:00:54;;;;;;;7.47;5.70;;;;;;;14.17;100.00;100015.94;5005722;28;20875;-69
2023/07/27 05:03:21;;;;;;;7.63;4.80;;;;;;;14.21;100.00;100019.47;5001984;28;20262;-70
2023/07/27 05:05:47;;;;;;;6.30;4.80;;;;;;;14.24;100.00;100006.13;5006690;28;20692;-70
2023/07/27 05:08:14;;;;;;;9.60;4.93;;;;;;;14.26;100.00;100009.66;5005697;28;20232;-69
2023/07/27 05:10:41;;;;;;;6.10;4.63;;;;;;;14.27;100.00;100006.09;5003253;28;20573;-69
2023/07/27 05:13:07;;;;;;;8.37;5.80;;;;;;;14.22;100.00;100008.78;5003241;28;20204;-70
2023/07/27 05:15:34;;;;;;;7.90;5.30;;;;;;;14.18;100.00;100004.41;5006862;28;20216;-68
2023/07/27 05:18:01;;;;;;;7.13;5.23;;;;;;;14.27;100.00;100000.78;5002578;28;20231;-68
2023/07/27 05:20:27;;;;;;;7.80;4.70;;;;;;;14.25;100.00;99998.13;5006472;28;20201;-69
2023/07/27 05:22:54;;;;;;;9.30;6.00;;;;;;;14.35;100.00;99990.94;5001334;28;20228;-70
2023/07/27 05:25:22;;;;;;;9.63;5.43;;;;;;;14.47;100.00;99995.31;4989072;28;22469;-70
2023/07/27 05:27:49;;;;;;;8.10;5.90;;;;;;;14.51;100.00;99989.06;5002129;28;20220;-70
2023/07/27 05:30:15;;;;;;;8.63;5.43;;;;;;;14.71;100.00;99985.31;4998884;28;20295;-70
2023/07/27 05:32:42;;;;;;;8.47;5.77;;;;;;;14.79;100.00;99982.56;5000982;28;20207;-70
2023/07/27 05:35:08;;;;;;;6.40;5.10;;;;;;;14.86;100.00;99970.06;5002012;28;20200;-70
2023/07/27 05:37:34;;;;;;;10.07;6.07;;;;;;;14.95;100.00;99977.97;4999469;28;20471;-70
2023/07/27 05:40:01;;;;;;;7.67;5.63;;;;;;;15.05;100.00;99972.50;4999933;28;20683;-68
2023/07/27 05:42:27;;;;;;;8.57;5.50;;;;;;;15.22;100.00;99972.31;5001927;28;20579;-68
2023/07/27 05:44:56;;;;;;;9.33;5.30;;;;;;;15.39;100.00;99957.88;5002817;28;20752;-70
2023/07/27 05:47:23;;;;;;;10.60;5.53;;;;;;;15.46;100.00;99951.53;5002470;28;20592;-70
2023/07/27 05:49:49;;;;;;;8.27;5.47;;;;;;;15.54;100.00;99954.97;5003378;28;20610;-69
2023/07/27 05:52:15;;;;;;;14.00;5.70;;;;;;;15.52;100.00;99948.78;5000143;28;20295;-70
2023/07/27 05:54:42;;;;;;;9.40;5.57;;;;;;;15.61;100.00;99944.25;5004906;28;21285;-73
2023/07/27 05:57:08;;;;;;;8.83;5.40;;;;;;;15.61;100.00;99956.72;5000335;28;20230;-72
2023/07/27 05:59:35;;;;;;;10.23;5.47;;;;;;;15.60;100.00;99954.94;5000835;28;20203;-71
2023/07/27 06:02:01;;;;;;;13.23;5.10;;;;;;;15.52;100.00;99952.34;5003592;28;20295;-70
2023/07/27 06:04:28;;;;;;;9.87;6.00;;;;;;;15.56;100.00;99954.06;5000218;28;20211;-70
2023/07/27 06:06:55;;;;;;;10.97;5.73;;;;;;;15.58;100.00;99956.75;4995448;28;20315;-70
2023/07/27 06:09:21;;;;;;;10.90;5.60;;;;;;;15.60;100.00;99957.59;5003780;28;20204;-70
2023/07/27 06:11:47;;;;;;;8.63;5.70;;;;;;;15.60;100.00;99947.81;5000539;28;20216;-70
2023/07/27 06:14:14;;;;;;;10.70;5.80;;;;;;;15.53;100.00;99947.88;5004226;28;20208;-70
2023/07/27 06:16:40;;;;;;;8.03;6.00;;;;;;;15.60;100.00;99947.81;4995686;28;20220;-70
2023/07/27 06:19:07;;;;;;;10.83;5.90;;;;;;;15.66;100.00;99949.53;4999894;28;20205;-70
2023/07/27 06:21:33;;;;;;;8.13;5.60;;;;;;;15.69;100.00;99946.81;5003423;28;20200;-69
2023/07/27 06:24:00;;;;;;;15.33;6.50;;;;;;;15.66;100.00;99952.19;5002900;28;20703;-70
2023/07/27 06:26:27;;;;;;;10.53;6.63;;;;;;;15.58;100.00;99946.94;5004816;28;20225;-69
2023/07/27 06:28:53;;;;;;;15.33;6.60;;;;;;;15.43;100.00;99949.78;4998183;28;20211;-69
2023/07/27 06:31:19;;;;;;;9.67;6.63;;;;;;;15.24;100.00;99954.50;5004377;28;20298;-69
2023/07/27 06:33:46;;;;;;;9.50;5.73;;;;;;;15.14;100.00;99954.63;4995171;28;20196;-70
2023/07/27 06:36:17;;;;;;;11.27;6.27;;;;;;;15.13;100.00;99947.50;5000875;28;20204;-70
2023/07/27 06:38:43;;;;;;;11.03;6.70;;;;;;;15.09;100.00;99948.47;4998288;28;20224;-69
2023/07/27 06:41:10;;;;;;;8.90;6.20;;;;;;;15.07;100.00;99942.25;5002248;28;20208;-70
2023/07/27 06:43:37;;;;;;;12.83;6.77;;;;;;;15.13;100.00;99940.41;4999794;28;20200;-69
2023/07/27 06:46:03;;;;;;;12.00;7.07;;;;;;;15.21;100.00;99932.28;5001253;28;20894;-68
2023/07/27 06:48:29;;;;;;;15.00;7.27;;;;;;;15.20;100.00;99936.75;5000741;28;20224;-70
2023/07/27 06:50:57;;;;;;;10.13;6.67;;;;;;;15.29;100.00;99938.44;4996521;28;20215;-69
2023/07/27 06:53:23;;;;;;;13.63;6.70;;;;;;;15.31;100.00;99940.19;5001464;28;20204;-70
2023/07/27 06:55:49;;;;;;;11.63;6.87;;;;;;;15.33;100.00;99932.16;5001413;28;20207;-70
2023/07/27 06:58:16;;;;;;;10.50;6.60;;;;;;;15.30;100.00;99927.75;5003397;28;20282;-70
2023/07/27 07:00:42;;;;;;;12.20;6.97;;;;;;;15.33;100.00;99933.03;5003243;28;20676;-69
2023/07/27 07:03:09;;;;;;;13.37;6.93;;;;;;;15.31;100.00;99917.94;4996827;28;20223;-70
2023/07/27 07:05:35;;;;;;;17.37;8.10;;;;;;;15.33;100.00;99929.50;4999173;28;20584;-68
2023/07/27 07:08:02;;;;;;;17.80;7.57;;;;;;;15.31;100.00;99937.50;5004718;28;20251;-69
2023/07/27 07:10:28;;;;;;;17.53;8.20;;;;;;;15.30;100.00;99919.75;4998728;28;20267;-70
2023/07/27 07:12:55;;;;;;;12.43;7.03;;;;;;;15.31;100.00;99916.16;5002108;28;20196;-69
2023/07/27 07:15:21;;;;;;;13.43;6.00;;;;;;;15.34;100.00;99917.91;5001974;28;20211;-69
2023/07/27 07:17:48;;;;;;;9.77;5.90;;;;;;;15.35;100.00;99917.88;5001727;28;20315;-68
2023/07/27 07:20:14;;;;;;;7.77;5.70;;;;;;;15.43;100.00;99912.44;5004373;28;20204;-69
2023/07/27 07:22:41;;;;;;;9.80;6.00;;;;;;;15.41;100.00;99914.25;4998096;28;20291;-70
2023/07/27 07:25:07;;;;;;;10.17;5.73;;;;;;;15.38;100.00;99914.28;5003645;28;20651;-70
2023/07/27 07:27:34;;;;;;;9.50;5.80;;;;;;;15.40;100.00;99911.59;5003172;28;20228;-70
2023/07/27 07:30:03;;;;;;;8.03;6.00;;;;;;;15.37;100.00;99915.19;4998794;28;20675;-73
2023/07/27 07:32:31;;;;;;;7.70;5.90;;;;;;;15.40;100.00;99919.59;4996133;28;20204;-73
2023/07/27 07:34:57;;;;;;;9.17;6.20;;;;;;;15.43;100.00;99915.09;5013406;28;20223;-72
2023/07/27 07:37:24;;;;;;;9.43;6.47;;;;;;;15.43;100.00;99914.22;5003133;28;20212;-72
2023/07/27 07:39:50;;;;;;;7.53;5.80;;;;;;;15.48;100.00;99907.03;4998273;28;20204;-74
2023/07/27 07:42:16;;;;;;;7.57;6.37;;;;;;;15.54;100.00;99905.16;5000274;28;20204;-73
2023/07/27 07:44:43;;;;;;;9.47;6.03;;;;;;;15.55;100.00;99896.25;5003225;28;20204;-73
2023/07/27 07:47:09;;;;;;;7.23;5.37;;;;;;;15.68;100.00;99891.66;5006208;28;20311;-74
2023/07/27 07:49:36;;;;;;;6.97;5.50;;;;;;;15.77;100.00;99886.16;4996121;28;20244;-73
2023/07/27 07:52:02;;;;;;;6.77;5.20;;;;;;;15.77;100.00;99878.16;4998032;28;20208;-73
2023/07/27 07:54:29;;;;;;;7.23;5.13;;;;;;;15.78;100.00;99874.56;5004448;28;20599;-72
2023/07/27 07:56:56;;;;;;;7.50;5.30;;;;;;;15.80;100.00;99872.75;5002374;28;20230;-75
2023/07/27 07:59:23;;;;;;;7.13;5.20;;;;;;;15.81;100.00;99862.97;5002577;28;20676;-77
2023/07/27 08:01:50;;;;;;;8.03;5.17;;;;;;;15.85;100.00;99854.00;5003202;28;20208;-75
2023/07/27 08:04:17;;;;;;;5.73;4.83;;;;;;;15.87;100.00;99863.75;4999180;28;20271;-72
2023/07/27 08:06:45;;;;;;;7.00;4.50;;;;;;;15.83;100.00;99851.34;5003436;28;20255;-73
2023/07/27 08:09:12;;;;;;;5.57;4.50;;;;;;;15.85;100.00;99848.66;5001970;28;20220;-72
2023/07/27 08:11:41;;;;;;;7.40;4.90;;;;;;;15.82;100.00;99848.72;4991109;28;20692;-74
2023/07/27 08:14:08;;;;;;;8.27;4.93;;;;;;;15.75;100.00;99847.94;4998558;28;20680;-72
2023/07/27 08:16:35;;;;;;;6.97;4.80;;;;;;;15.75;100.00;99847.06;5005833;28;20699;-74
2023/07/27 08:19:02;;;;;;;7.97;4.80;;;;;;;15.76;100.00;99848.81;5001077;28;20206;-72
2023/07/27 08:21:28;;;;;;;6.93;4.77;;;;;;;15.69;100.00;99844.47;5002721;28;20383;-72
2023/07/27 08:23:57;;;;;;;8.57;5.20;;;;;;;15.71;100.00;99845.34;5003305;28;20211;-73
2023/07/27 08:26:24;;;;;;;7.23;4.90;;;;;;;15.65;100.00;99849.00;5002024;28;20235;-72
2023/07/27 08:28:50;;;;;;;7.37;5.23;;;;;;;15.66;100.00;99854.31;5011449;28;20243;-73
2023/07/27 08:31:17;;;;;;;6.53;4.80;;;;;;;15.63;100.00;99850.81;5002126;28;20969;-75
2023/07/27 08:33:43;;;;;;;7.50;4.73;;;;;;;15.62;100.00;99846.38;4999282;28;20204;-71
2023/07/27 08:36:10;;;;;;;7.70;5.13;;;;;;;15.65;100.00;99838.31;4996351;28;20197;-72
2023/07/27 08:38:36;;;;;;;8.97;5.13;;;;;;;15.69;100.00;99841.81;5001510;28;20789;-72
2023/07/27 08:41:02;;;;;;;6.67;4.33;;;;;;;15.72;100.00;99839.09;4999324;28;20223;-72
2023/07/27 08:43:29;;;;;;;7.33;4.67;;;;;;;15.69;100.00;99832.00;4998099;28;20204;-72
2023/07/27 08:45:55;;;;;;;7.47;4.63;;;;;;;15.76;100.00;99830.13;4999244;28;20216;-72
2023/07/27 08:48:25;;;;;;;8.07;4.20;;;;;;;15.84;100.00;99831.75;5000470;28;20248;-72
2023/07/27 08:50:52;;;;;;;9.23;4.60;;;;;;;15.92;100.00;99834.28;5001422;28;20204;-72
2023/07/27 08:53:18;;;;;;;7.40;4.40;;;;;;;15.92;100.00;99831.63;4992413;28;20205;-71
2023/07/27 08:55:45;;;;;;;5.60;4.40;;;;;;;15.96;100.00;99827.97;4995757;28;20203;-71
2023/07/27 08:58:11;;;;;;;6.97;4.53;;;;;;;15.98;100.00;99834.16;4997544;28;20250;-72
2023/07/27 09:00:38;;;;;;;7.33;4.53;;;;;;;16.06;100.00;99829.59;4995153;28;20208;-74
2023/07/27 09:03:08;;;;;;;6.23;4.40;;;;;;;16.12;100.00;99826.81;4997770;28;20671;-72
2023/07/27 09:05:45;;;;;;;6.70;4.30;;;;;;;16.10;100.00;99820.63;5000775;28;20713;-73
2023/07/27 09:08:13;;;;;;;6.70;4.87;;;;;;;16.16;100.00;99816.94;5003024;28;20470;-73
2023/07/27 09:10:41;;;;;;;6.40;4.20;;;;;;;16.21;100.00;99825.75;5000033;28;20292;-72
2023/07/27 09:13:07;;;;;;;5.67;4.37;;;;;;;16.23;100.00;99826.59;5001220;28;20200;-74
2023/07/27 09:15:36;;;;;;;7.87;4.70;;;;;;;16.28;100.00;99835.41;4993824;28;20758;-72
2023/07/27 09:18:08;;;;;;;7.67;4.17;;;;;;;16.36;100.00;99824.56;5007484;28;20228;-73
2023/07/27 09:20:35;;;;;;;5.47;4.00;;;;;;;16.42;100.00;99819.16;5002536;28;20304;-74
2023/07/27 09:23:01;;;;;;;6.83;4.10;;;;;;;16.43;100.00;99815.56;5003472;28;20323;-73
2023/07/27 09:25:28;;;;;;;4.67;3.90;;;;;;;16.45;100.00;99811.06;4999224;28;20209;-74
2023/07/27 09:27:55;;;;;;;6.20;4.20;;;;;;;16.50;100.00;99814.53;5000478;28;20670;-73
2023/07/27 09:30:23;;;;;;;6.07;4.17;;;;;;;16.46;100.00;99812.81;4999138;28;20221;-74
2023/07/27 09:32:51;;;;;;;7.00;4.03;;;;;;;16.55;100.00;99800.16;5002115;28;20204;-73
2023/07/27 09:35:19;;;;;;;4.83;3.77;;;;;;;16.63;100.00;99793.75;5000076;28;20207;-74
2023/07/27 09:37:49;;;;;;;5.07;3.73;;;;;;;16.71;100.00;99797.19;5002018;28;20238;-72
2023/07/27 09:40:18;;;;;;;6.30;3.57;;;;;;;16.89;100.00;99797.69;5003933;28;20204;-73
2023/07/27 09:42:45;;;;;;;5.17;3.27;;;;;;;16.87;100.00;99801.31;5004026;28;20208;-73
2023/07/27 09:45:13;;;;;;;5.77;3.77;;;;;;;16.78;100.00;99777.41;4997289;28;20205;-75
2023/07/27 09:47:40;;;;;;;6.13;3.30;;;;;;;16.87;100.00;99790.59;5005698;28;20224;-73
2023/07/27 09:50:08;;;;;;;5.53;3.03;;;;;;;16.92;100.00;99784.25;5001989;28;20905;-71
2023/07/27 09:52:37;;;;;;;6.33;3.30;;;;;;;16.91;100.00;99774.44;5000366;28;20292;-73
2023/07/27 09:55:04;;;;;;;5.43;3.00;;;;;;;17.06;100.00;99778.56;4997803;28;20204;-73
2023/07/27 09:57:30;;;;;;;4.53;2.90;;;;;;;17.07;100.00;99774.09;5001893;28;20660;-73
2023/07/27 10:00:04;;;;;;;4.10;3.00;;;;;;;17.16;100.00;99780.09;5002569;28;20628;-72
2023/07/27 10:02:33;;;;;;;3.60;2.90;;;;;;;17.21;100.00;99777.31;5006262;28;20208;-72
2023/07/27 10:05:02;;;;;;;4.97;3.13;;;;;;;17.30;100.00;99774.44;5001291;28;20212;-71
2023/07/27 10:07:29;;;;;;;4.30;2.87;;;;;;;17.37;100.00;99776.06;5004286;28;20708;-72
2023/07/27 10:10:33;;;;;;;3.63;2.80;;;;;;;17.38;100.00;99772.47;4994751;28;20736;-73
2023/07/27 10:13:34;;;;;;;3.40;2.57;;;;;;;17.44;100.00;99774.13;4997492;28;20255;-73
2023/07/27 10:16:01;;;;;;;3.17;2.70;;;;;;;17.37;100.00;99773.38;4998611;28;20294;-73
2023/07/27 10:18:29;;;;;;;4.37;2.80;;;;;;;17.39;100.00;99774.22;4999648;28;20228;-73
2023/07/27 10:21:16;;;;;;;3.83;3.13;;;;;;;17.42;100.00;99768.78;5003034;28;20211;-74
2023/07/27 10:23:58;;;;;;;3.20;2.90;;;;;;;17.40;100.00;99773.31;5000697;28;20208;-73
2023/07/27 10:26:40;;;;;;;7.57;3.23;;;;;;;17.43;100.00;99769.66;5000292;28;20225;-74
2023/07/27 10:29:17;;;;;;;3.50;3.17;;;;;;;17.57;100.00;99767.53;4999797;28;21641;-74
2023/07/27 10:31:45;;;;;;;5.80;3.67;;;;;;;17.62;100.00;99773.66;5013389;28;20458;-73
2023/07/27 10:34:11;;;;;;;5.13;3.50;;;;;;;17.63;100.00;99770.06;5003277;28;20680;-74
2023/07/27 10:36:57;;;;;;;4.30;3.63;;;;;;;17.61;100.00;99771.00;5007359;28;20318;-72
2023/07/27 10:39:26;;;;;;;4.83;3.70;;;;;;;17.65;100.00;99760.19;4997500;28;20211;-72
2023/07/27 10:42:09;;;;;;;5.83;3.53;;;;;;;17.61;100.00;99768.31;5003072;28;20288;-72
2023/07/27 10:44:42;;;;;;;5.37;3.40;;;;;;;17.64;100.00;99768.28;5002563;28;20213;-73
2023/07/27 10:47:10;;;;;;;5.50;3.80;;;;;;;17.60;100.00;99767.44;5002382;28;20224;-75
2023/07/27 10:49:41;;;;;;;5.17;3.30;;;;;;;17.55;100.00;99769.38;5000164;28;20207;-75
2023/07/27 10:52:09;;;;;;;4.10;3.30;;;;;;;17.55;100.00;99772.03;5002034;28;20212;-74
2023/07/27 10:54:39;;;;;;;3.37;3.07;;;;;;;17.61;100.00;99765.66;5003241;28;20211;-74
2023/07/27 10:57:08;;;;;;;4.27;3.37;;;;;;;17.63;100.00;99764.72;5000247;28;20223;-74
2023/07/27 10:59:43;;;;;;;4.40;3.53;;;;;;;17.69;100.00;99761.91;4999500;28;20338;-74
2023/07/27 11:02:15;;;;;;;5.83;3.93;;;;;;;17.70;100.00;99762.78;5001885;28;20763;-75
2023/07/27 11:04:42;;;;;;;9.13;3.80;;;;;;;17.67;100.00;99761.06;5002926;28;20259;-73
2023/07/27 11:07:10;;;;;;;6.93;4.63;;;;;;;17.65;100.00;99757.53;5005472;28;20228;-73
2023/07/27 11:09:43;;;;;;;5.77;4.20;;;;;;;17.64;100.00;99760.25;5001924;28;20207;-74
2023/07/27 11:12:09;;;;;;;8.23;5.10;;;;;;;17.62;100.00;99757.59;4999541;28;20200;-74
2023/07/27 11:14:36;;;;;;;5.93;4.07;;;;;;;17.65;100.00;99753.97;5004404;28;20287;-74
2023/07/27 11:17:03;;;;;;;4.90;3.90;;;;;;;17.77;100.00;99745.63;5002407;28;20220;-74
2023/07/27 11:19:29;;;;;;;4.97;3.97;;;;;;;17.88;100.00;99740.00;5004463;28;20653;-74
2023/07/27 11:21:56;;;;;;;5.13;3.63;;;;;;;17.94;100.00;99727.31;5003029;28;20280;-75
2023/07/27 11:24:23;;;;;;;4.67;3.70;;;;;;;18.12;100.00;99745.56;4998496;28;20704;-74
2023/07/27 11:26:49;;;;;;;5.23;3.30;;;;;;;18.15;100.00;99732.09;5007424;28;20220;-74